sensor_id;sensor_type;location;lat;lon;timestamp;pressure;altitude;pressure_sealevel;temperature
66027;BMP280;56312;55.976;37.136;2022-10-31T00:03:05;57634.44;;;-135.08
66027;BMP280;56312;55.976;37.136;2022-10-31T00:08:11;57634.44;;;-135.08
66027;BMP280;56312;55.976;37.136;2022-10-31T00:13:17;57634.44;;;-135.08
66027;BMP280;56312;55.976;37.136;2022-10-31T00:18:23;57634.44;;;-135.08
66027;BMP280;56312;55.976;37.136;2022-10-31T00:23:29;57634.44;;;-135.08
66027;BMP280;56312;55.976;37.136;2022-10-31T00:28:35;57634.44;;;-135.08
66027;BMP280;56312;55.976;37.136;2022-10-31T00:33:41;57634.44;;;-135.08
66027;BMP280;56312;55.976;37.136;2022-10-31T00:38:48;57634.44;;;-135.08
66027;BMP280;56312;55.976;37.136;2022-10-31T00:43:54;57634.44;;;-135.08
66027;BMP280;56312;55.976;37.136;2022-10-31T00:49:00;57634.44;;;-135.08
66027;BMP280;56312;55.976;37.136;2022-10-31T00:54:06;57634.44;;;-135.08
66027;BMP280;56312;55.976;37.136;2022-10-31T00:59:12;57634.44;;;-135.08
66027;BMP280;56312;55.976;37.136;2022-10-31T01:04:18;57634.44;;;-135.08
66027;BMP280;56312;55.976;37.136;2022-10-31T01:09:24;57634.44;;;-135.08
66027;BMP280;56312;55.976;37.136;2022-10-31T01:14:30;57634.44;;;-135.08
66027;BMP280;56312;55.976;37.136;2022-10-31T01:19:36;57634.44;;;-135.08
66027;BMP280;56312;55.976;37.136;2022-10-31T01:24:42;57634.44;;;-135.08
66027;BMP280;56312;55.976;37.136;2022-10-31T01:29:48;57634.44;;;-135.08
66027;BMP280;56312;55.976;37.136;2022-10-31T01:34:54;57634.44;;;-135.08
66027;BMP280;56312;55.976;37.136;2022-10-31T01:40:00;57634.44;;;-135.08
66027;BMP280;56312;55.976;37.136;2022-10-31T01:45:09;57634.44;;;-135.08
66027;BMP280;56312;55.976;37.136;2022-10-31T01:50:26;57634.44;;;-135.08
66027;BMP280;56312;55.976;37.136;2022-10-31T01:55:34;57634.44;;;-135.08
66027;BMP280;56312;55.976;37.136;2022-10-31T02:00:41;57634.44;;;-135.08
66027;BMP280;56312;55.976;37.136;2022-10-31T02:05:49;57634.44;;;-135.08
66027;BMP280;56312;55.976;37.136;2022-10-31T02:10:56;57634.44;;;-135.08
66027;BMP280;56312;55.976;37.136;2022-10-31T02:16:02;57634.44;;;-135.08
66027;BMP280;56312;55.976;37.136;2022-10-31T02:32:19;57634.44;;;-135.08
66027;BMP280;56312;55.976;37.136;2022-10-31T02:48:01;57634.44;;;-135.08
66027;BMP280;56312;55.976;37.136;2022-10-31T02:53:09;57634.44;;;-135.08
66027;BMP280;56312;55.976;37.136;2022-10-31T02:58:15;57634.44;;;-135.08
66027;BMP280;56312;55.976;37.136;2022-10-31T03:03:47;57634.44;;;-135.08
66027;BMP280;56312;55.976;37.136;2022-10-31T03:08:56;57634.44;;;-135.08
66027;BMP280;56312;55.976;37.136;2022-10-31T03:14:18;57634.44;;;-135.08
66027;BMP280;56312;55.976;37.136;2022-10-31T03:19:29;57634.44;;;-135.08
66027;BMP280;56312;55.976;37.136;2022-10-31T03:24:36;57634.44;;;-135.08
66027;BMP280;56312;55.976;37.136;2022-10-31T03:29:43;57634.44;;;-135.08
66027;BMP280;56312;55.976;37.136;2022-10-31T03:34:49;57634.44;;;-135.08
66027;BMP280;56312;55.976;37.136;2022-10-31T03:39:56;57634.44;;;-135.08
66027;BMP280;56312;55.976;37.136;2022-10-31T03:50:10;57634.44;;;-135.08
66027;BMP280;56312;55.976;37.136;2022-10-31T03:55:18;57634.44;;;-135.08
66027;BMP280;56312;55.976;37.136;2022-10-31T04:00:25;57634.44;;;-135.08
66027;BMP280;56312;55.976;37.136;2022-10-31T04:05:31;57634.44;;;-135.08
66027;BMP280;56312;55.976;37.136;2022-10-31T04:10:37;57634.44;;;-135.08
66027;BMP280;56312;55.976;37.136;2022-10-31T04:15:44;57634.44;;;-135.08
66027;BMP280;56312;55.976;37.136;2022-10-31T04:20:59;57634.44;;;-135.08
66027;BMP280;56312;55.976;37.136;2022-10-31T04:26:06;57634.44;;;-135.08
66027;BMP280;56312;55.976;37.136;2022-10-31T04:31:12;97200.00;;;9.85
66027;BMP280;56312;55.976;37.136;2022-10-31T04:36:18;97213.28;;;9.78
66027;BMP280;56312;55.976;37.136;2022-10-31T04:41:24;97218.22;;;9.81
66027;BMP280;56312;55.976;37.136;2022-10-31T04:46:31;97239.75;;;9.78
66027;BMP280;56312;55.976;37.136;2022-10-31T04:51:37;97238.75;;;9.81
66027;BMP280;56312;55.976;37.136;2022-10-31T04:56:43;97271.13;;;9.82
66027;BMP280;56312;55.976;37.136;2022-10-31T05:01:50;97268.69;;;9.80
66027;BMP280;56312;55.976;37.136;2022-10-31T05:06:56;97286.91;;;9.76
66027;BMP280;56312;55.976;37.136;2022-10-31T05:12:02;97295.50;;;9.75
66027;BMP280;56312;55.976;37.136;2022-10-31T05:17:09;97301.72;;;9.71
66027;BMP280;56312;55.976;37.136;2022-10-31T05:22:15;97316.00;;;9.75
66027;BMP280;56312;55.976;37.136;2022-10-31T05:27:21;97334.69;;;9.77
66027;BMP280;56312;55.976;37.136;2022-10-31T05:32:28;97347.31;;;9.80
66027;BMP280;56312;55.976;37.136;2022-10-31T05:37:35;97352.72;;;9.75
66027;BMP280;56312;55.976;37.136;2022-10-31T05:42:42;97360.31;;;9.77
66027;BMP280;56312;55.976;37.136;2022-10-31T05:47:56;97375.84;;;9.74
66027;BMP280;56312;55.976;37.136;2022-10-31T05:53:06;97389.59;;;9.73
66027;BMP280;56312;55.976;37.136;2022-10-31T05:58:13;97399.69;;;9.76
66027;BMP280;56312;55.976;37.136;2022-10-31T06:03:19;97404.91;;;9.74
66027;BMP280;56312;55.976;37.136;2022-10-31T06:08:26;97420.03;;;9.79
66027;BMP280;56312;55.976;37.136;2022-10-31T06:13:32;97439.63;;;9.80
66027;BMP280;56312;55.976;37.136;2022-10-31T06:18:39;97448.13;;;9.80
66027;BMP280;56312;55.976;37.136;2022-10-31T06:23:45;97465.50;;;9.75
66027;BMP280;56312;55.976;37.136;2022-10-31T06:28:51;97469.63;;;9.78
66027;BMP280;56312;55.976;37.136;2022-10-31T06:33:58;97482.63;;;9.75
66027;BMP280;56312;55.976;37.136;2022-10-31T06:39:04;97507.34;;;9.76
66027;BMP280;56312;55.976;37.136;2022-10-31T06:44:10;97524.38;;;9.77
66027;BMP280;56312;55.976;37.136;2022-10-31T06:49:16;97537.19;;;9.77
66027;BMP280;56312;55.976;37.136;2022-10-31T06:54:23;97543.34;;;9.74
66027;BMP280;56312;55.976;37.136;2022-10-31T06:59:29;97555.69;;;9.82
66027;BMP280;56312;55.976;37.136;2022-10-31T07:04:35;97574.09;;;9.74
66027;BMP280;56312;55.976;37.136;2022-10-31T07:09:42;97591.03;;;9.77
66027;BMP280;56312;55.976;37.136;2022-10-31T07:14:48;97608.25;;;9.75
66027;BMP280;56312;55.976;37.136;2022-10-31T07:19:55;97625.44;;;9.73
66027;BMP280;56312;55.976;37.136;2022-10-31T07:25:01;97639.75;;;9.77
66027;BMP280;56312;55.976;37.136;2022-10-31T07:30:09;97647.38;;;9.78
66027;BMP280;56312;55.976;37.136;2022-10-31T07:35:21;97659.19;;;9.81
66027;BMP280;56312;55.976;37.136;2022-10-31T07:40:28;97657.69;;;9.77
66027;BMP280;56312;55.976;37.136;2022-10-31T07:45:34;97675.63;;;9.77
66027;BMP280;56312;55.976;37.136;2022-10-31T07:50:41;97673.16;;;9.75
66027;BMP280;56312;55.976;37.136;2022-10-31T07:55:47;97677.28;;;9.78
66027;BMP280;56312;55.976;37.136;2022-10-31T08:00:53;97684.25;;;9.76
66027;BMP280;56312;55.976;37.136;2022-10-31T08:06:00;97697.72;;;9.79
66027;BMP280;56312;55.976;37.136;2022-10-31T08:11:06;97687.47;;;9.79
66027;BMP280;56312;55.976;37.136;2022-10-31T08:16:12;97698.56;;;9.80
66027;BMP280;56312;55.976;37.136;2022-10-31T08:21:18;97728.34;;;9.82
66027;BMP280;56312;55.976;37.136;2022-10-31T08:26:25;97733.53;;;9.81
66027;BMP280;56312;55.976;37.136;2022-10-31T08:31:31;97749.00;;;9.79
66027;BMP280;56312;55.976;37.136;2022-10-31T08:36:38;97749.81;;;9.80
66027;BMP280;56312;55.976;37.136;2022-10-31T08:41:44;97769.41;;;9.81
66027;BMP280;56312;55.976;37.136;2022-10-31T08:46:50;97785.56;;;9.83
66027;BMP280;56312;55.976;37.136;2022-10-31T08:51:57;97793.31;;;9.81
66027;BMP280;56312;55.976;37.136;2022-10-31T08:57:03;97799.28;;;9.82
66027;BMP280;56312;55.976;37.136;2022-10-31T09:02:09;97806.38;;;9.77
66027;BMP280;56312;55.976;37.136;2022-10-31T09:07:16;97807.16;;;9.79
66027;BMP280;56312;55.976;37.136;2022-10-31T09:12:22;97837.91;;;9.79
66027;BMP280;56312;55.976;37.136;2022-10-31T09:17:29;97855.22;;;9.74
66027;BMP280;56312;55.976;37.136;2022-10-31T09:22:35;97850.19;;;9.72
66027;BMP280;56312;55.976;37.136;2022-10-31T09:27:42;97849.22;;;9.75
66027;BMP280;56312;55.976;37.136;2022-10-31T09:32:48;97840.72;;;9.74
66027;BMP280;56312;55.976;37.136;2022-10-31T09:38:02;97851.69;;;9.76
66027;BMP280;56312;55.976;37.136;2022-10-31T09:43:25;97863.47;;;9.80
66027;BMP280;56312;55.976;37.136;2022-10-31T09:54:22;97873.88;;;9.77
66027;BMP280;56312;55.976;37.136;2022-10-31T09:59:35;97889.34;;;9.76
66027;BMP280;56312;55.976;37.136;2022-10-31T10:05:03;97916.34;;;9.83
66027;BMP280;56312;55.976;37.136;2022-10-31T10:10:20;97928.63;;;9.76
66027;BMP280;56312;55.976;37.136;2022-10-31T10:21:53;97924.31;;;9.77
66027;BMP280;56312;55.976;37.136;2022-10-31T10:26:45;97917.81;;;9.70
66027;BMP280;56312;55.976;37.136;2022-10-31T10:32:18;97956.72;;;9.78
66027;BMP280;56312;55.976;37.136;2022-10-31T10:37:32;97962.88;;;9.75
66027;BMP280;56312;55.976;37.136;2022-10-31T10:48:33;97958.41;;;9.79
66027;BMP280;56312;55.976;37.136;2022-10-31T10:53:55;97965.34;;;9.77
66027;BMP280;56312;55.976;37.136;2022-10-31T10:59:09;97962.78;;;9.77
66027;BMP280;56312;55.976;37.136;2022-10-31T11:04:24;98002.38;;;9.71
66027;BMP280;56312;55.976;37.136;2022-10-31T11:09:41;97986.00;;;9.74
66027;BMP280;56312;55.976;37.136;2022-10-31T11:14:50;97993.50;;;9.78
66027;BMP280;56312;55.976;37.136;2022-10-31T11:19:59;97990.38;;;9.72
66027;BMP280;56312;55.976;37.136;2022-10-31T11:30:25;98000.53;;;9.73
66027;BMP280;56312;55.976;37.136;2022-10-31T11:35:31;98001.47;;;9.72
66027;BMP280;56312;55.976;37.136;2022-10-31T11:40:38;97991.44;;;9.68
66027;BMP280;56312;55.976;37.136;2022-10-31T11:45:44;97983.50;;;9.72
66027;BMP280;56312;55.976;37.136;2022-10-31T11:50:59;97994.44;;;9.76
66027;BMP280;56312;55.976;37.136;2022-10-31T11:56:10;97972.44;;;9.72
66027;BMP280;56312;55.976;37.136;2022-10-31T12:01:24;97976.88;;;9.68
66027;BMP280;56312;55.976;37.136;2022-10-31T12:06:36;97984.34;;;9.73
66027;BMP280;56312;55.976;37.136;2022-10-31T12:11:51;98002.22;;;9.74
66027;BMP280;56312;55.976;37.136;2022-10-31T12:17:12;98035.69;;;9.71
66027;BMP280;56312;55.976;37.136;2022-10-31T12:27:54;98040.53;;;9.77
66027;BMP280;56312;55.976;37.136;2022-10-31T12:59:50;98097.22;;;9.71
66027;BMP280;56312;55.976;37.136;2022-10-31T13:05:05;98107.69;;;9.67
66027;BMP280;56312;55.976;37.136;2022-10-31T13:21:27;98126.25;;;9.72
66027;BMP280;56312;55.976;37.136;2022-10-31T13:26:59;98133.88;;;9.73
66027;BMP280;56312;55.976;37.136;2022-10-31T13:32:09;98125.56;;;9.68
66027;BMP280;56312;55.976;37.136;2022-10-31T13:37:35;98146.16;;;9.67
66027;BMP280;56312;55.976;37.136;2022-10-31T13:42:54;98143.44;;;9.70
66027;BMP280;56312;55.976;37.136;2022-10-31T13:48:47;98158.91;;;9.68
66027;BMP280;56312;55.976;37.136;2022-10-31T13:53:38;98164.09;;;9.67
66027;BMP280;56312;55.976;37.136;2022-10-31T14:09:21;98182.94;;;9.66
66027;BMP280;56312;55.976;37.136;2022-10-31T14:14:44;98185.97;;;9.74
66027;BMP280;56312;55.976;37.136;2022-10-31T14:20:00;98196.41;;;9.71
66027;BMP280;56312;55.976;37.136;2022-10-31T14:30:33;98210.25;;;9.67
66027;BMP280;56312;55.976;37.136;2022-10-31T14:41:13;98228.19;;;9.67
66027;BMP280;56312;55.976;37.136;2022-10-31T14:51:46;98234.41;;;9.61
66027;BMP280;56312;55.976;37.136;2022-10-31T14:56:55;98249.47;;;9.69
66027;BMP280;56312;55.976;37.136;2022-10-31T15:02:15;98255.50;;;9.68
66027;BMP280;56312;55.976;37.136;2022-10-31T15:07:26;98260.75;;;9.65
66027;BMP280;56312;55.976;37.136;2022-10-31T15:12:34;98265.13;;;9.63
66027;BMP280;56312;55.976;37.136;2022-10-31T15:17:46;98275.22;;;9.66
66027;BMP280;56312;55.976;37.136;2022-10-31T15:22:57;98280.09;;;9.72
66027;BMP280;56312;55.976;37.136;2022-10-31T15:28:14;98298.25;;;9.67
66027;BMP280;56312;55.976;37.136;2022-10-31T15:33:29;98297.53;;;9.64
66027;BMP280;56312;55.976;37.136;2022-10-31T15:38:36;98297.59;;;9.62
66027;BMP280;56312;55.976;37.136;2022-10-31T15:43:44;98296.75;;;9.62
66027;BMP280;56312;55.976;37.136;2022-10-31T15:48:52;98293.25;;;9.64
66027;BMP280;56312;55.976;37.136;2022-10-31T15:53:58;98302.53;;;9.67
66027;BMP280;56312;55.976;37.136;2022-10-31T15:59:11;98304.31;;;9.65
66027;BMP280;56312;55.976;37.136;2022-10-31T16:04:27;98318.97;;;9.63
66027;BMP280;56312;55.976;37.136;2022-10-31T16:09:35;98313.03;;;9.61
66027;BMP280;56312;55.976;37.136;2022-10-31T16:14:41;98328.31;;;9.64
66027;BMP280;56312;55.976;37.136;2022-10-31T16:19:52;98328.44;;;9.61
66027;BMP280;56312;55.976;37.136;2022-10-31T16:25:11;98330.78;;;9.65
66027;BMP280;56312;55.976;37.136;2022-10-31T16:30:30;98331.91;;;9.60
66027;BMP280;56312;55.976;37.136;2022-10-31T16:35:38;98346.66;;;9.55
66027;BMP280;56312;55.976;37.136;2022-10-31T16:40:44;98351.09;;;9.50
66027;BMP280;56312;55.976;37.136;2022-10-31T16:45:51;98364.59;;;9.55
66027;BMP280;56312;55.976;37.136;2022-10-31T16:50:58;98352.72;;;9.53
66027;BMP280;56312;55.976;37.136;2022-10-31T16:56:04;98362.91;;;9.54
66027;BMP280;56312;55.976;37.136;2022-10-31T17:01:18;98373.03;;;9.57
66027;BMP280;56312;55.976;37.136;2022-10-31T17:06:25;98367.16;;;9.55
66027;BMP280;56312;55.976;37.136;2022-10-31T17:11:33;98369.56;;;9.58
66027;BMP280;56312;55.976;37.136;2022-10-31T17:16:39;98372.28;;;9.55
66027;BMP280;56312;55.976;37.136;2022-10-31T17:21:46;98383.41;;;9.54
66027;BMP280;56312;55.976;37.136;2022-10-31T17:26:52;98380.91;;;9.53
66027;BMP280;56312;55.976;37.136;2022-10-31T17:31:58;98390.22;;;9.55
66027;BMP280;56312;55.976;37.136;2022-10-31T17:37:05;98390.47;;;9.49
66027;BMP280;56312;55.976;37.136;2022-10-31T17:42:12;98388.81;;;9.48
66027;BMP280;56312;55.976;37.136;2022-10-31T17:47:18;98390.34;;;9.52
66027;BMP280;56312;55.976;37.136;2022-10-31T17:52:24;98398.97;;;9.50
66027;BMP280;56312;55.976;37.136;2022-10-31T17:57:34;98413.41;;;9.52
66027;BMP280;56312;55.976;37.136;2022-10-31T18:02:41;98418.78;;;9.46
66027;BMP280;56312;55.976;37.136;2022-10-31T18:07:48;98419.44;;;9.51
66027;BMP280;56312;55.976;37.136;2022-10-31T18:12:55;98429.75;;;9.50
66027;BMP280;56312;55.976;37.136;2022-10-31T18:18:02;98428.09;;;9.49
66027;BMP280;56312;55.976;37.136;2022-10-31T18:23:09;98451.06;;;9.50
66027;BMP280;56312;55.976;37.136;2022-10-31T18:28:15;98452.91;;;9.47
66027;BMP280;56312;55.976;37.136;2022-10-31T18:33:22;98458.91;;;9.47
66027;BMP280;56312;55.976;37.136;2022-10-31T18:38:30;98466.53;;;9.49
66027;BMP280;56312;55.976;37.136;2022-10-31T18:43:36;98484.53;;;9.47
66027;BMP280;56312;55.976;37.136;2022-10-31T18:48:43;98482.91;;;9.45
66027;BMP280;56312;55.976;37.136;2022-10-31T18:53:53;98491.44;;;9.45
66027;BMP280;56312;55.976;37.136;2022-10-31T18:59:01;98499.91;;;9.47
66027;BMP280;56312;55.976;37.136;2022-10-31T19:04:08;98503.25;;;9.49
66027;BMP280;56312;55.976;37.136;2022-10-31T19:09:15;98502.59;;;9.44
66027;BMP280;56312;55.976;37.136;2022-10-31T19:14:22;98505.03;;;9.47
66027;BMP280;56312;55.976;37.136;2022-10-31T19:19:28;98501.59;;;9.48
66027;BMP280;56312;55.976;37.136;2022-10-31T19:24:35;98514.41;;;9.48
66027;BMP280;56312;55.976;37.136;2022-10-31T19:29:41;98526.50;;;9.45
66027;BMP280;56312;55.976;37.136;2022-10-31T19:34:48;98538.75;;;9.37
66027;BMP280;56312;55.976;37.136;2022-10-31T19:39:54;98539.38;;;9.43
66027;BMP280;56312;55.976;37.136;2022-10-31T19:45:00;98548.72;;;9.44
66027;BMP280;56312;55.976;37.136;2022-10-31T19:50:08;98548.91;;;9.40
66027;BMP280;56312;55.976;37.136;2022-10-31T19:55:14;98558.31;;;9.39
66027;BMP280;56312;55.976;37.136;2022-10-31T20:00:20;98559.91;;;9.42
66027;BMP280;56312;55.976;37.136;2022-10-31T20:05:27;98555.72;;;9.39
66027;BMP280;56312;55.976;37.136;2022-10-31T20:10:33;98563.59;;;9.35
66027;BMP280;56312;55.976;37.136;2022-10-31T20:15:39;98558.38;;;9.38
66027;BMP280;56312;55.976;37.136;2022-10-31T20:20:46;98562.44;;;9.43
66027;BMP280;56312;55.976;37.136;2022-10-31T20:25:53;98565.88;;;9.42
66027;BMP280;56312;55.976;37.136;2022-10-31T20:30:59;98561.94;;;9.34
66027;BMP280;56312;55.976;37.136;2022-10-31T20:36:07;98573.69;;;9.39
66027;BMP280;56312;55.976;37.136;2022-10-31T20:41:14;98577.03;;;9.41
66027;BMP280;56312;55.976;37.136;2022-10-31T20:46:22;98578.97;;;9.35
66027;BMP280;56312;55.976;37.136;2022-10-31T20:51:30;98580.72;;;9.34
66027;BMP280;56312;55.976;37.136;2022-10-31T20:56:36;98585.13;;;9.31
66027;BMP280;56312;55.976;37.136;2022-10-31T21:01:43;98587.75;;;9.30
66027;BMP280;56312;55.976;37.136;2022-10-31T21:06:49;98585.06;;;9.32
66027;BMP280;56312;55.976;37.136;2022-10-31T21:11:56;98588.69;;;9.27
66027;BMP280;56312;55.976;37.136;2022-10-31T21:17:02;98587.84;;;9.27
66027;BMP280;56312;55.976;37.136;2022-10-31T21:22:10;98593.75;;;9.29
66027;BMP280;56312;55.976;37.136;2022-10-31T21:27:16;98597.09;;;9.31
66027;BMP280;56312;55.976;37.136;2022-10-31T21:32:22;98598.06;;;9.28
66027;BMP280;56312;55.976;37.136;2022-10-31T21:37:29;98609.69;;;9.36
66027;BMP280;56312;55.976;37.136;2022-10-31T21:42:35;98624.38;;;9.31
66027;BMP280;56312;55.976;37.136;2022-10-31T21:47:41;98620.06;;;9.33
66027;BMP280;56312;55.976;37.136;2022-10-31T21:52:48;98628.75;;;9.30
66027;BMP280;56312;55.976;37.136;2022-10-31T21:57:54;98630.50;;;9.28
66027;BMP280;56312;55.976;37.136;2022-10-31T22:03:00;98638.06;;;9.32
66027;BMP280;56312;55.976;37.136;2022-10-31T22:08:06;98635.59;;;9.29
66027;BMP280;56312;55.976;37.136;2022-10-31T22:13:13;98640.72;;;9.29
66027;BMP280;56312;55.976;37.136;2022-10-31T22:18:19;98647.44;;;9.31
66027;BMP280;56312;55.976;37.136;2022-10-31T22:23:25;98651.00;;;9.28
66027;BMP280;56312;55.976;37.136;2022-10-31T22:28:32;98653.63;;;9.26
66027;BMP280;56312;55.976;37.136;2022-10-31T22:33:39;98652.00;;;9.24
66027;BMP280;56312;55.976;37.136;2022-10-31T22:38:45;98648.63;;;9.23
66027;BMP280;56312;55.976;37.136;2022-10-31T22:43:52;98659.59;;;9.27
66027;BMP280;56312;55.976;37.136;2022-10-31T22:49:00;98658.94;;;9.22
66027;BMP280;56312;55.976;37.136;2022-10-31T22:54:16;98653.72;;;9.25
66027;BMP280;56312;55.976;37.136;2022-10-31T22:59:23;98658.75;;;9.26
66027;BMP280;56312;55.976;37.136;2022-10-31T23:04:30;98663.72;;;9.31
66027;BMP280;56312;55.976;37.136;2022-10-31T23:09:36;98668.13;;;9.27
66027;BMP280;56312;55.976;37.136;2022-10-31T23:14:42;98671.66;;;9.25
66027;BMP280;56312;55.976;37.136;2022-10-31T23:19:49;98675.06;;;9.24
66027;BMP280;56312;55.976;37.136;2022-10-31T23:24:55;98684.63;;;9.20
66027;BMP280;56312;55.976;37.136;2022-10-31T23:30:01;98684.47;;;9.25
66027;BMP280;56312;55.976;37.136;2022-10-31T23:35:08;98684.56;;;9.22
66027;BMP280;56312;55.976;37.136;2022-10-31T23:40:15;98694.81;;;9.22
66027;BMP280;56312;55.976;37.136;2022-10-31T23:45:21;98690.63;;;9.19
66027;BMP280;56312;55.976;37.136;2022-10-31T23:50:28;98695.81;;;9.18
66027;BMP280;56312;55.976;37.136;2022-10-31T23:55:35;98694.06;;;9.18
